sensor_id;sensor_type;location;lat;lon;timestamp;temperature;humidity
6373;DHT22;3219;51.362;7.074;2022-11-15T00:00:59;10.50;99.90
6373;DHT22;3219;51.362;7.074;2022-11-15T00:03:27;10.40;99.90
6373;DHT22;3219;51.362;7.074;2022-11-15T00:05:54;10.50;99.90
6373;DHT22;3219;51.362;7.074;2022-11-15T00:08:21;10.50;99.90
6373;DHT22;3219;51.362;7.074;2022-11-15T00:10:54;10.60;99.90
6373;DHT22;3219;51.362;7.074;2022-11-15T00:13:21;10.60;99.90
6373;DHT22;3219;51.362;7.074;2022-11-15T00:15:50;10.60;99.90
6373;DHT22;3219;51.362;7.074;2022-11-15T00:18:17;10.70;99.90
6373;DHT22;3219;51.362;7.074;2022-11-15T00:20:44;10.60;99.90
6373;DHT22;3219;51.362;7.074;2022-11-15T00:23:11;10.60;99.90
6373;DHT22;3219;51.362;7.074;2022-11-15T00:25:38;10.60;99.90
6373;DHT22;3219;51.362;7.074;2022-11-15T00:28:04;10.70;99.90
6373;DHT22;3219;51.362;7.074;2022-11-15T00:30:31;10.70;99.90
6373;DHT22;3219;51.362;7.074;2022-11-15T00:33:03;10.70;99.90
6373;DHT22;3219;51.362;7.074;2022-11-15T00:35:31;10.80;99.90
6373;DHT22;3219;51.362;7.074;2022-11-15T00:37:59;10.70;99.90
6373;DHT22;3219;51.362;7.074;2022-11-15T00:40:25;10.70;99.90
6373;DHT22;3219;51.362;7.074;2022-11-15T00:42:52;10.80;99.90
6373;DHT22;3219;51.362;7.074;2022-11-15T00:45:19;10.80;99.90
6373;DHT22;3219;51.362;7.074;2022-11-15T00:47:46;10.70;99.90
6373;DHT22;3219;51.362;7.074;2022-11-15T00:50:14;10.70;99.90
6373;DHT22;3219;51.362;7.074;2022-11-15T00:52:41;10.70;99.90
6373;DHT22;3219;51.362;7.074;2022-11-15T00:55:09;10.80;99.90
6373;DHT22;3219;51.362;7.074;2022-11-15T00:57:39;10.70;99.90
6373;DHT22;3219;51.362;7.074;2022-11-15T01:00:07;10.80;99.90
6373;DHT22;3219;51.362;7.074;2022-11-15T01:02:34;10.90;99.90
6373;DHT22;3219;51.362;7.074;2022-11-15T01:05:01;10.90;99.90
6373;DHT22;3219;51.362;7.074;2022-11-15T01:07:29;10.90;99.90
6373;DHT22;3219;51.362;7.074;2022-11-15T01:09:56;11.00;99.90
6373;DHT22;3219;51.362;7.074;2022-11-15T01:12:23;10.90;99.90
6373;DHT22;3219;51.362;7.074;2022-11-15T01:17:16;10.90;99.90
6373;DHT22;3219;51.362;7.074;2022-11-15T01:27:07;10.90;99.90
6373;DHT22;3219;51.362;7.074;2022-11-15T01:29:33;11.10;99.90
6373;DHT22;3219;51.362;7.074;2022-11-15T01:32:00;11.10;99.90
6373;DHT22;3219;51.362;7.074;2022-11-15T01:34:27;11.10;99.90
6373;DHT22;3219;51.362;7.074;2022-11-15T01:36:54;11.10;99.90
6373;DHT22;3219;51.362;7.074;2022-11-15T01:39:20;11.10;99.90
6373;DHT22;3219;51.362;7.074;2022-11-15T01:41:48;11.10;99.90
6373;DHT22;3219;51.362;7.074;2022-11-15T01:44:39;11.10;99.90
6373;DHT22;3219;51.362;7.074;2022-11-15T01:47:09;11.10;99.90
6373;DHT22;3219;51.362;7.074;2022-11-15T01:49:39;11.10;99.90
6373;DHT22;3219;51.362;7.074;2022-11-15T01:52:09;11.10;99.90
6373;DHT22;3219;51.362;7.074;2022-11-15T01:54:38;11.00;99.90
6373;DHT22;3219;51.362;7.074;2022-11-15T01:57:09;11.10;99.90
6373;DHT22;3219;51.362;7.074;2022-11-15T01:59:37;11.00;99.90
6373;DHT22;3219;51.362;7.074;2022-11-15T02:02:05;11.00;99.90
6373;DHT22;3219;51.362;7.074;2022-11-15T02:04:35;11.10;99.90
6373;DHT22;3219;51.362;7.074;2022-11-15T02:07:04;11.10;99.90
6373;DHT22;3219;51.362;7.074;2022-11-15T02:09:31;11.20;99.90
6373;DHT22;3219;51.362;7.074;2022-11-15T02:11:59;11.10;99.90
6373;DHT22;3219;51.362;7.074;2022-11-15T02:14:27;11.10;99.90
6373;DHT22;3219;51.362;7.074;2022-11-15T02:16:59;11.10;99.90
6373;DHT22;3219;51.362;7.074;2022-11-15T02:19:39;11.10;99.90
6373;DHT22;3219;51.362;7.074;2022-11-15T02:22:14;11.10;99.90
6373;DHT22;3219;51.362;7.074;2022-11-15T02:25:01;11.10;99.90
6373;DHT22;3219;51.362;7.074;2022-11-15T02:27:52;11.20;99.90
6373;DHT22;3219;51.362;7.074;2022-11-15T02:30:35;11.20;99.90
6373;DHT22;3219;51.362;7.074;2022-11-15T02:33:13;11.20;99.90
6373;DHT22;3219;51.362;7.074;2022-11-15T02:35:46;11.20;99.90
6373;DHT22;3219;51.362;7.074;2022-11-15T02:38:19;11.20;99.90
6373;DHT22;3219;51.362;7.074;2022-11-15T02:40:53;11.10;99.90
6373;DHT22;3219;51.362;7.074;2022-11-15T02:43:25;11.20;99.90
6373;DHT22;3219;51.362;7.074;2022-11-15T02:48:43;11.10;99.90
6373;DHT22;3219;51.362;7.074;2022-11-15T02:53:39;11.10;99.90
6373;DHT22;3219;51.362;7.074;2022-11-15T02:58:54;11.10;99.90
6373;DHT22;3219;51.362;7.074;2022-11-15T03:06:39;11.20;99.90
6373;DHT22;3219;51.362;7.074;2022-11-15T03:09:11;11.20;99.90
6373;DHT22;3219;51.362;7.074;2022-11-15T03:16:51;11.30;99.90
6373;DHT22;3219;51.362;7.074;2022-11-15T03:39:21;11.30;99.90
6373;DHT22;3219;51.362;7.074;2022-11-15T03:41:52;11.50;99.90
6373;DHT22;3219;51.362;7.074;2022-11-15T03:44:31;11.50;99.90
6373;DHT22;3219;51.362;7.074;2022-11-15T03:47:03;11.50;99.90
6373;DHT22;3219;51.362;7.074;2022-11-15T03:49:34;11.40;99.90
6373;DHT22;3219;51.362;7.074;2022-11-15T03:52:03;11.50;99.90
6373;DHT22;3219;51.362;7.074;2022-11-15T03:54:30;11.50;99.90
6373;DHT22;3219;51.362;7.074;2022-11-15T03:56:57;11.50;99.90
6373;DHT22;3219;51.362;7.074;2022-11-15T03:59:23;11.40;99.90
6373;DHT22;3219;51.362;7.074;2022-11-15T04:01:50;11.50;99.90
6373;DHT22;3219;51.362;7.074;2022-11-15T04:04:18;11.50;99.90
6373;DHT22;3219;51.362;7.074;2022-11-15T04:06:45;11.50;99.90
6373;DHT22;3219;51.362;7.074;2022-11-15T04:09:12;11.50;99.90
6373;DHT22;3219;51.362;7.074;2022-11-15T04:11:38;11.60;99.90
6373;DHT22;3219;51.362;7.074;2022-11-15T04:14:05;11.50;99.90
6373;DHT22;3219;51.362;7.074;2022-11-15T04:16:32;11.50;99.90
6373;DHT22;3219;51.362;7.074;2022-11-15T04:18:59;11.50;99.90
6373;DHT22;3219;51.362;7.074;2022-11-15T04:21:44;11.50;99.90
6373;DHT22;3219;51.362;7.074;2022-11-15T04:24:28;11.50;99.90
6373;DHT22;3219;51.362;7.074;2022-11-15T04:26:55;11.50;99.90
6373;DHT22;3219;51.362;7.074;2022-11-15T04:29:22;11.50;99.90
6373;DHT22;3219;51.362;7.074;2022-11-15T04:32:01;11.50;99.90
6373;DHT22;3219;51.362;7.074;2022-11-15T04:34:27;11.50;99.90
6373;DHT22;3219;51.362;7.074;2022-11-15T04:36:55;11.60;99.90
6373;DHT22;3219;51.362;7.074;2022-11-15T04:39:42;11.60;99.90
6373;DHT22;3219;51.362;7.074;2022-11-15T04:42:09;11.60;99.90
6373;DHT22;3219;51.362;7.074;2022-11-15T04:44:36;11.50;99.90
6373;DHT22;3219;51.362;7.074;2022-11-15T04:47:03;11.50;99.90
6373;DHT22;3219;51.362;7.074;2022-11-15T04:49:30;11.60;99.90
6373;DHT22;3219;51.362;7.074;2022-11-15T04:51:58;11.60;99.90
6373;DHT22;3219;51.362;7.074;2022-11-15T04:54:25;11.60;99.90
6373;DHT22;3219;51.362;7.074;2022-11-15T04:56:52;11.60;99.90
6373;DHT22;3219;51.362;7.074;2022-11-15T04:59:18;11.60;99.90
6373;DHT22;3219;51.362;7.074;2022-11-15T05:01:45;11.60;99.90
6373;DHT22;3219;51.362;7.074;2022-11-15T05:04:12;11.50;99.90
6373;DHT22;3219;51.362;7.074;2022-11-15T05:06:48;11.50;99.90
6373;DHT22;3219;51.362;7.074;2022-11-15T05:09:16;11.50;99.90
6373;DHT22;3219;51.362;7.074;2022-11-15T05:11:43;11.50;99.90
6373;DHT22;3219;51.362;7.074;2022-11-15T05:14:10;11.40;99.90
6373;DHT22;3219;51.362;7.074;2022-11-15T05:16:37;11.40;99.90
6373;DHT22;3219;51.362;7.074;2022-11-15T05:19:04;11.40;99.90
6373;DHT22;3219;51.362;7.074;2022-11-15T05:21:31;11.40;99.90
6373;DHT22;3219;51.362;7.074;2022-11-15T05:23:58;11.40;99.90
6373;DHT22;3219;51.362;7.074;2022-11-15T05:26:27;11.40;99.90
6373;DHT22;3219;51.362;7.074;2022-11-15T05:28:55;11.40;99.90
6373;DHT22;3219;51.362;7.074;2022-11-15T05:31:23;11.40;99.90
6373;DHT22;3219;51.362;7.074;2022-11-15T05:33:50;11.40;99.90
6373;DHT22;3219;51.362;7.074;2022-11-15T05:36:21;11.40;99.90
6373;DHT22;3219;51.362;7.074;2022-11-15T05:38:51;11.50;99.90
6373;DHT22;3219;51.362;7.074;2022-11-15T05:41:21;11.50;99.90
6373;DHT22;3219;51.362;7.074;2022-11-15T05:43:50;11.40;99.90
6373;DHT22;3219;51.362;7.074;2022-11-15T05:46:18;11.50;99.90
6373;DHT22;3219;51.362;7.074;2022-11-15T05:48:48;11.40;99.90
6373;DHT22;3219;51.362;7.074;2022-11-15T05:51:17;11.50;99.90
6373;DHT22;3219;51.362;7.074;2022-11-15T05:53:44;11.50;99.90
6373;DHT22;3219;51.362;7.074;2022-11-15T05:56:12;11.50;99.90
6373;DHT22;3219;51.362;7.074;2022-11-15T05:58:39;11.60;99.90
6373;DHT22;3219;51.362;7.074;2022-11-15T06:01:07;11.60;99.90
6373;DHT22;3219;51.362;7.074;2022-11-15T06:03:34;11.50;99.90
6373;DHT22;3219;51.362;7.074;2022-11-15T06:06:01;11.50;99.90
6373;DHT22;3219;51.362;7.074;2022-11-15T06:08:28;11.50;99.90
6373;DHT22;3219;51.362;7.074;2022-11-15T06:10:54;11.50;99.90
6373;DHT22;3219;51.362;7.074;2022-11-15T06:13:21;11.50;99.90
6373;DHT22;3219;51.362;7.074;2022-11-15T06:15:48;11.60;99.90
6373;DHT22;3219;51.362;7.074;2022-11-15T06:18:16;11.60;99.90
6373;DHT22;3219;51.362;7.074;2022-11-15T06:20:43;11.60;99.90
6373;DHT22;3219;51.362;7.074;2022-11-15T06:23:09;11.60;99.90
6373;DHT22;3219;51.362;7.074;2022-11-15T06:25:36;11.60;99.90
6373;DHT22;3219;51.362;7.074;2022-11-15T06:28:03;11.60;99.90
6373;DHT22;3219;51.362;7.074;2022-11-15T06:30:30;11.60;99.90
6373;DHT22;3219;51.362;7.074;2022-11-15T06:33:00;11.70;99.90
6373;DHT22;3219;51.362;7.074;2022-11-15T06:35:30;11.70;99.90
6373;DHT22;3219;51.362;7.074;2022-11-15T06:38:02;11.70;99.90
6373;DHT22;3219;51.362;7.074;2022-11-15T06:40:29;11.60;99.90
6373;DHT22;3219;51.362;7.074;2022-11-15T06:42:58;11.60;99.90
6373;DHT22;3219;51.362;7.074;2022-11-15T06:45:24;11.60;99.90
6373;DHT22;3219;51.362;7.074;2022-11-15T06:47:51;11.70;99.90
6373;DHT22;3219;51.362;7.074;2022-11-15T06:50:18;11.70;99.90
6373;DHT22;3219;51.362;7.074;2022-11-15T06:52:46;11.80;99.90
6373;DHT22;3219;51.362;7.074;2022-11-15T06:55:13;11.80;99.90
6373;DHT22;3219;51.362;7.074;2022-11-15T06:57:47;11.70;99.90
6373;DHT22;3219;51.362;7.074;2022-11-15T07:00:15;11.80;99.90
6373;DHT22;3219;51.362;7.074;2022-11-15T07:02:42;11.70;99.90
6373;DHT22;3219;51.362;7.074;2022-11-15T07:05:09;11.70;99.90
6373;DHT22;3219;51.362;7.074;2022-11-15T07:07:35;11.80;99.90
6373;DHT22;3219;51.362;7.074;2022-11-15T07:10:04;11.80;99.90
6373;DHT22;3219;51.362;7.074;2022-11-15T07:12:32;11.90;99.90
6373;DHT22;3219;51.362;7.074;2022-11-15T07:14:59;11.90;99.90
6373;DHT22;3219;51.362;7.074;2022-11-15T07:17:25;11.80;99.90
6373;DHT22;3219;51.362;7.074;2022-11-15T07:19:52;11.80;99.90
6373;DHT22;3219;51.362;7.074;2022-11-15T07:22:19;11.80;99.90
6373;DHT22;3219;51.362;7.074;2022-11-15T07:24:45;11.80;99.90
6373;DHT22;3219;51.362;7.074;2022-11-15T07:27:14;11.80;99.90
6373;DHT22;3219;51.362;7.074;2022-11-15T07:29:40;11.80;99.90
6373;DHT22;3219;51.362;7.074;2022-11-15T07:32:07;11.80;99.90
6373;DHT22;3219;51.362;7.074;2022-11-15T07:34:34;11.80;99.90
6373;DHT22;3219;51.362;7.074;2022-11-15T07:37:00;11.80;99.90
6373;DHT22;3219;51.362;7.074;2022-11-15T07:39:27;11.80;99.90
6373;DHT22;3219;51.362;7.074;2022-11-15T07:41:54;11.80;99.90
6373;DHT22;3219;51.362;7.074;2022-11-15T07:44:42;11.80;99.90
6373;DHT22;3219;51.362;7.074;2022-11-15T07:47:09;11.80;99.90
6373;DHT22;3219;51.362;7.074;2022-11-15T07:49:35;11.80;99.90
6373;DHT22;3219;51.362;7.074;2022-11-15T07:52:02;11.80;99.90
6373;DHT22;3219;51.362;7.074;2022-11-15T07:54:29;11.80;99.90
6373;DHT22;3219;51.362;7.074;2022-11-15T07:56:56;11.90;99.90
6373;DHT22;3219;51.362;7.074;2022-11-15T07:59:22;11.90;99.90
6373;DHT22;3219;51.362;7.074;2022-11-15T08:01:50;12.00;99.90
6373;DHT22;3219;51.362;7.074;2022-11-15T08:04:17;12.30;99.90
6373;DHT22;3219;51.362;7.074;2022-11-15T08:06:44;12.30;99.90
6373;DHT22;3219;51.362;7.074;2022-11-15T08:09:11;12.40;99.90
6373;DHT22;3219;51.362;7.074;2022-11-15T08:11:38;12.40;99.90
6373;DHT22;3219;51.362;7.074;2022-11-15T08:14:05;12.50;99.90
6373;DHT22;3219;51.362;7.074;2022-11-15T08:16:31;12.60;99.90
6373;DHT22;3219;51.362;7.074;2022-11-15T08:18:59;12.80;99.90
6373;DHT22;3219;51.362;7.074;2022-11-15T08:21:26;12.90;99.90
6373;DHT22;3219;51.362;7.074;2022-11-15T08:23:53;13.00;99.90
6373;DHT22;3219;51.362;7.074;2022-11-15T08:26:20;13.00;99.90
6373;DHT22;3219;51.362;7.074;2022-11-15T08:28:47;13.10;99.90
6373;DHT22;3219;51.362;7.074;2022-11-15T08:31:15;13.10;99.90
6373;DHT22;3219;51.362;7.074;2022-11-15T08:33:42;13.10;99.90
6373;DHT22;3219;51.362;7.074;2022-11-15T08:36:13;12.90;99.90
6373;DHT22;3219;51.362;7.074;2022-11-15T08:38:40;12.90;99.90
6373;DHT22;3219;51.362;7.074;2022-11-15T08:41:13;12.70;99.90
6373;DHT22;3219;51.362;7.074;2022-11-15T08:43:41;12.60;99.90
6373;DHT22;3219;51.362;7.074;2022-11-15T08:46:09;12.50;99.90
6373;DHT22;3219;51.362;7.074;2022-11-15T08:48:37;12.40;99.90
6373;DHT22;3219;51.362;7.074;2022-11-15T08:51:04;12.40;99.90
6373;DHT22;3219;51.362;7.074;2022-11-15T08:53:33;12.40;99.90
6373;DHT22;3219;51.362;7.074;2022-11-15T08:56:00;12.40;99.90
6373;DHT22;3219;51.362;7.074;2022-11-15T08:58:27;12.30;99.90
6373;DHT22;3219;51.362;7.074;2022-11-15T09:00:54;12.20;99.90
6373;DHT22;3219;51.362;7.074;2022-11-15T09:03:20;12.20;99.90
6373;DHT22;3219;51.362;7.074;2022-11-15T09:05:47;12.30;99.90
6373;DHT22;3219;51.362;7.074;2022-11-15T09:08:14;12.40;99.90
6373;DHT22;3219;51.362;7.074;2022-11-15T09:10:42;12.40;99.90
6373;DHT22;3219;51.362;7.074;2022-11-15T09:13:09;12.50;99.90
6373;DHT22;3219;51.362;7.074;2022-11-15T09:15:35;12.50;99.90
6373;DHT22;3219;51.362;7.074;2022-11-15T09:18:02;12.50;99.90
6373;DHT22;3219;51.362;7.074;2022-11-15T09:20:29;12.60;99.90
6373;DHT22;3219;51.362;7.074;2022-11-15T09:22:59;12.60;99.90
6373;DHT22;3219;51.362;7.074;2022-11-15T09:25:26;12.50;99.90
6373;DHT22;3219;51.362;7.074;2022-11-15T09:27:54;12.60;99.90
6373;DHT22;3219;51.362;7.074;2022-11-15T09:30:22;12.60;99.90
6373;DHT22;3219;51.362;7.074;2022-11-15T09:32:49;12.60;99.90
6373;DHT22;3219;51.362;7.074;2022-11-15T09:35:16;12.60;99.90
6373;DHT22;3219;51.362;7.074;2022-11-15T09:37:43;12.70;99.90
6373;DHT22;3219;51.362;7.074;2022-11-15T09:40:11;12.70;99.90
6373;DHT22;3219;51.362;7.074;2022-11-15T09:43:11;12.70;99.90
6373;DHT22;3219;51.362;7.074;2022-11-15T09:45:55;12.80;99.90
6373;DHT22;3219;51.362;7.074;2022-11-15T09:48:39;12.80;99.90
6373;DHT22;3219;51.362;7.074;2022-11-15T09:51:14;12.80;99.90
6373;DHT22;3219;51.362;7.074;2022-11-15T09:53:48;12.70;99.90
6373;DHT22;3219;51.362;7.074;2022-11-15T09:56:19;12.70;99.90
6373;DHT22;3219;51.362;7.074;2022-11-15T09:58:54;12.70;99.90
6373;DHT22;3219;51.362;7.074;2022-11-15T10:01:34;12.70;99.90
6373;DHT22;3219;51.362;7.074;2022-11-15T10:04:03;12.70;99.90
6373;DHT22;3219;51.362;7.074;2022-11-15T10:06:31;12.70;99.90
6373;DHT22;3219;51.362;7.074;2022-11-15T10:09:03;12.70;99.90
6373;DHT22;3219;51.362;7.074;2022-11-15T10:11:35;12.70;99.90
6373;DHT22;3219;51.362;7.074;2022-11-15T10:14:09;12.70;99.90
6373;DHT22;3219;51.362;7.074;2022-11-15T10:17:13;12.60;99.90
6373;DHT22;3219;51.362;7.074;2022-11-15T10:19:52;12.60;99.90
6373;DHT22;3219;51.362;7.074;2022-11-15T10:22:25;12.60;99.90
6373;DHT22;3219;51.362;7.074;2022-11-15T10:25:01;12.60;99.90
6373;DHT22;3219;51.362;7.074;2022-11-15T10:27:36;12.60;99.90
6373;DHT22;3219;51.362;7.074;2022-11-15T10:30:11;12.60;99.90
6373;DHT22;3219;51.362;7.074;2022-11-15T10:32:39;12.60;99.90
6373;DHT22;3219;51.362;7.074;2022-11-15T10:35:17;12.60;99.90
6373;DHT22;3219;51.362;7.074;2022-11-15T10:37:44;12.60;99.90
6373;DHT22;3219;51.362;7.074;2022-11-15T10:40:17;12.60;99.90
6373;DHT22;3219;51.362;7.074;2022-11-15T10:42:44;12.70;99.90
6373;DHT22;3219;51.362;7.074;2022-11-15T10:45:26;12.70;99.90
6373;DHT22;3219;51.362;7.074;2022-11-15T10:47:53;12.70;99.90
6373;DHT22;3219;51.362;7.074;2022-11-15T10:50:29;12.70;99.90
6373;DHT22;3219;51.362;7.074;2022-11-15T10:52:56;12.70;99.90
6373;DHT22;3219;51.362;7.074;2022-11-15T10:55:26;12.70;99.90
6373;DHT22;3219;51.362;7.074;2022-11-15T10:57:55;12.70;99.90
6373;DHT22;3219;51.362;7.074;2022-11-15T11:00:30;12.70;99.90
6373;DHT22;3219;51.362;7.074;2022-11-15T11:03:00;12.70;99.90
6373;DHT22;3219;51.362;7.074;2022-11-15T11:05:29;12.80;99.90
6373;DHT22;3219;51.362;7.074;2022-11-15T11:07:58;12.80;99.90
6373;DHT22;3219;51.362;7.074;2022-11-15T11:10:26;12.80;99.90
6373;DHT22;3219;51.362;7.074;2022-11-15T11:12:53;12.80;99.90
6373;DHT22;3219;51.362;7.074;2022-11-15T11:15:20;12.70;99.90
6373;DHT22;3219;51.362;7.074;2022-11-15T11:17:58;12.70;99.90
6373;DHT22;3219;51.362;7.074;2022-11-15T11:20:32;12.70;99.90
6373;DHT22;3219;51.362;7.074;2022-11-15T11:23:31;12.70;99.90
6373;DHT22;3219;51.362;7.074;2022-11-15T11:26:08;12.70;99.90
6373;DHT22;3219;51.362;7.074;2022-11-15T11:28:44;12.70;99.90
6373;DHT22;3219;51.362;7.074;2022-11-15T11:31:27;12.70;99.90
6373;DHT22;3219;51.362;7.074;2022-11-15T11:34:04;12.80;99.90
6373;DHT22;3219;51.362;7.074;2022-11-15T11:36:40;12.80;99.90
6373;DHT22;3219;51.362;7.074;2022-11-15T11:39:20;12.70;99.90
6373;DHT22;3219;51.362;7.074;2022-11-15T11:41:58;12.80;99.90
6373;DHT22;3219;51.362;7.074;2022-11-15T11:44:45;12.80;99.90
6373;DHT22;3219;51.362;7.074;2022-11-15T11:47:19;12.90;99.90
6373;DHT22;3219;51.362;7.074;2022-11-15T11:49:51;12.90;99.90
6373;DHT22;3219;51.362;7.074;2022-11-15T11:52:22;12.90;99.90
6373;DHT22;3219;51.362;7.074;2022-11-15T11:54:58;12.90;99.90
6373;DHT22;3219;51.362;7.074;2022-11-15T11:57:33;12.90;99.90
6373;DHT22;3219;51.362;7.074;2022-11-15T12:00:04;12.90;99.90
6373;DHT22;3219;51.362;7.074;2022-11-15T12:02:41;12.80;99.90
6373;DHT22;3219;51.362;7.074;2022-11-15T12:05:15;12.90;99.90
6373;DHT22;3219;51.362;7.074;2022-11-15T12:07:45;12.80;99.90
6373;DHT22;3219;51.362;7.074;2022-11-15T12:10:19;12.80;99.90
6373;DHT22;3219;51.362;7.074;2022-11-15T12:12:54;12.80;99.90
6373;DHT22;3219;51.362;7.074;2022-11-15T12:15:23;12.80;99.90
6373;DHT22;3219;51.362;7.074;2022-11-15T12:17:51;12.80;99.90
6373;DHT22;3219;51.362;7.074;2022-11-15T12:20:21;12.70;99.90
6373;DHT22;3219;51.362;7.074;2022-11-15T12:22:53;12.70;99.90
6373;DHT22;3219;51.362;7.074;2022-11-15T12:25:23;12.80;99.90
6373;DHT22;3219;51.362;7.074;2022-11-15T12:27:54;12.80;99.90
6373;DHT22;3219;51.362;7.074;2022-11-15T12:30:22;12.80;99.90
6373;DHT22;3219;51.362;7.074;2022-11-15T12:32:53;12.80;99.90
6373;DHT22;3219;51.362;7.074;2022-11-15T12:35:27;12.80;99.90
6373;DHT22;3219;51.362;7.074;2022-11-15T12:37:54;12.80;99.90
6373;DHT22;3219;51.362;7.074;2022-11-15T12:40:33;12.90;99.90
6373;DHT22;3219;51.362;7.074;2022-11-15T12:45:45;12.90;99.90
6373;DHT22;3219;51.362;7.074;2022-11-15T12:48:46;12.90;99.90
6373;DHT22;3219;51.362;7.074;2022-11-15T12:51:14;12.90;99.90
6373;DHT22;3219;51.362;7.074;2022-11-15T12:53:41;12.90;99.90
6373;DHT22;3219;51.362;7.074;2022-11-15T12:56:24;12.90;99.90
6373;DHT22;3219;51.362;7.074;2022-11-15T12:58:56;12.90;99.90
6373;DHT22;3219;51.362;7.074;2022-11-15T13:04:13;12.90;99.90
6373;DHT22;3219;51.362;7.074;2022-11-15T13:06:43;13.00;99.90
6373;DHT22;3219;51.362;7.074;2022-11-15T13:12:51;13.00;99.90
6373;DHT22;3219;51.362;7.074;2022-11-15T13:15:45;13.00;99.90
6373;DHT22;3219;51.362;7.074;2022-11-15T13:18:34;13.00;99.90
6373;DHT22;3219;51.362;7.074;2022-11-15T13:21:03;13.00;99.90
6373;DHT22;3219;51.362;7.074;2022-11-15T13:23:54;13.00;99.90
6373;DHT22;3219;51.362;7.074;2022-11-15T13:26:21;13.00;99.90
6373;DHT22;3219;51.362;7.074;2022-11-15T13:28:51;13.10;99.90
6373;DHT22;3219;51.362;7.074;2022-11-15T13:31:25;13.00;99.90
6373;DHT22;3219;51.362;7.074;2022-11-15T13:33:56;13.00;99.90
6373;DHT22;3219;51.362;7.074;2022-11-15T13:36:25;12.90;99.90
6373;DHT22;3219;51.362;7.074;2022-11-15T13:38:58;12.80;99.90
6373;DHT22;3219;51.362;7.074;2022-11-15T13:41:27;12.90;99.90
6373;DHT22;3219;51.362;7.074;2022-11-15T13:43:57;12.80;99.90
6373;DHT22;3219;51.362;7.074;2022-11-15T13:46:26;12.80;99.90
6373;DHT22;3219;51.362;7.074;2022-11-15T13:48:56;12.80;99.90
6373;DHT22;3219;51.362;7.074;2022-11-15T13:51:36;12.80;99.90
6373;DHT22;3219;51.362;7.074;2022-11-15T13:54:10;12.80;99.90
6373;DHT22;3219;51.362;7.074;2022-11-15T13:56:42;12.80;99.90
6373;DHT22;3219;51.362;7.074;2022-11-15T13:59:15;12.80;99.90
6373;DHT22;3219;51.362;7.074;2022-11-15T14:01:44;12.90;99.90
6373;DHT22;3219;51.362;7.074;2022-11-15T14:04:13;12.90;99.90
6373;DHT22;3219;51.362;7.074;2022-11-15T14:06:46;12.80;99.90
6373;DHT22;3219;51.362;7.074;2022-11-15T14:09:32;12.90;99.90
6373;DHT22;3219;51.362;7.074;2022-11-15T14:12:01;12.80;99.90
6373;DHT22;3219;51.362;7.074;2022-11-15T14:14:30;12.80;99.90
6373;DHT22;3219;51.362;7.074;2022-11-15T14:16:58;12.80;99.90
6373;DHT22;3219;51.362;7.074;2022-11-15T14:19:37;12.80;99.90
6373;DHT22;3219;51.362;7.074;2022-11-15T14:22:19;12.80;99.90
6373;DHT22;3219;51.362;7.074;2022-11-15T14:25:05;12.90;99.90
6373;DHT22;3219;51.362;7.074;2022-11-15T14:27:33;12.90;99.90
6373;DHT22;3219;51.362;7.074;2022-11-15T14:30:02;12.90;99.90
6373;DHT22;3219;51.362;7.074;2022-11-15T14:32:39;12.90;99.90
6373;DHT22;3219;51.362;7.074;2022-11-15T14:35:13;12.80;99.90
6373;DHT22;3219;51.362;7.074;2022-11-15T14:37:40;12.80;99.90
6373;DHT22;3219;51.362;7.074;2022-11-15T14:40:08;12.80;99.90
6373;DHT22;3219;51.362;7.074;2022-11-15T14:42:38;12.80;99.90
6373;DHT22;3219;51.362;7.074;2022-11-15T14:45:10;12.70;99.90
6373;DHT22;3219;51.362;7.074;2022-11-15T14:47:38;12.70;99.90
6373;DHT22;3219;51.362;7.074;2022-11-15T14:50:05;12.80;99.90
6373;DHT22;3219;51.362;7.074;2022-11-15T14:52:32;12.80;99.90
6373;DHT22;3219;51.362;7.074;2022-11-15T14:55:02;12.80;99.90
6373;DHT22;3219;51.362;7.074;2022-11-15T14:57:29;12.80;99.90
6373;DHT22;3219;51.362;7.074;2022-11-15T14:59:56;12.70;99.90
6373;DHT22;3219;51.362;7.074;2022-11-15T15:02:25;12.70;99.90
6373;DHT22;3219;51.362;7.074;2022-11-15T15:04:53;12.70;99.90
6373;DHT22;3219;51.362;7.074;2022-11-15T15:07:20;12.70;99.90
6373;DHT22;3219;51.362;7.074;2022-11-15T15:09:47;12.70;99.90
6373;DHT22;3219;51.362;7.074;2022-11-15T15:12:16;12.60;99.90
6373;DHT22;3219;51.362;7.074;2022-11-15T15:14:44;12.60;99.90
6373;DHT22;3219;51.362;7.074;2022-11-15T15:17:11;12.60;99.90
6373;DHT22;3219;51.362;7.074;2022-11-15T15:19:39;12.60;99.90
6373;DHT22;3219;51.362;7.074;2022-11-15T15:22:11;12.60;99.90
6373;DHT22;3219;51.362;7.074;2022-11-15T15:24:40;12.50;99.90
6373;DHT22;3219;51.362;7.074;2022-11-15T15:27:06;12.50;99.90
6373;DHT22;3219;51.362;7.074;2022-11-15T15:29:33;12.50;99.90
6373;DHT22;3219;51.362;7.074;2022-11-15T15:32:00;12.50;99.90
6373;DHT22;3219;51.362;7.074;2022-11-15T15:34:27;12.50;99.90
6373;DHT22;3219;51.362;7.074;2022-11-15T15:37:08;12.50;99.90
6373;DHT22;3219;51.362;7.074;2022-11-15T15:39:35;12.50;99.90
6373;DHT22;3219;51.362;7.074;2022-11-15T15:42:02;12.50;99.90
6373;DHT22;3219;51.362;7.074;2022-11-15T15:44:29;12.50;99.90
6373;DHT22;3219;51.362;7.074;2022-11-15T15:46:56;12.50;99.90
6373;DHT22;3219;51.362;7.074;2022-11-15T15:49:24;12.50;99.90
6373;DHT22;3219;51.362;7.074;2022-11-15T15:51:50;12.50;99.90
6373;DHT22;3219;51.362;7.074;2022-11-15T15:54:19;12.50;99.90
6373;DHT22;3219;51.362;7.074;2022-11-15T15:56:45;12.50;99.90
6373;DHT22;3219;51.362;7.074;2022-11-15T15:59:12;12.50;99.90
6373;DHT22;3219;51.362;7.074;2022-11-15T16:01:39;12.50;99.90
6373;DHT22;3219;51.362;7.074;2022-11-15T16:04:06;12.50;99.90
6373;DHT22;3219;51.362;7.074;2022-11-15T16:06:35;12.50;99.90
6373;DHT22;3219;51.362;7.074;2022-11-15T16:09:03;12.60;99.90
6373;DHT22;3219;51.362;7.074;2022-11-15T16:11:31;12.50;99.90
6373;DHT22;3219;51.362;7.074;2022-11-15T16:13:58;12.50;99.90
6373;DHT22;3219;51.362;7.074;2022-11-15T16:16:25;12.60;99.90
6373;DHT22;3219;51.362;7.074;2022-11-15T16:18:52;12.50;99.90
6373;DHT22;3219;51.362;7.074;2022-11-15T16:21:20;12.50;99.90
6373;DHT22;3219;51.362;7.074;2022-11-15T16:23:46;12.50;99.90
6373;DHT22;3219;51.362;7.074;2022-11-15T16:26:19;12.50;99.90
6373;DHT22;3219;51.362;7.074;2022-11-15T16:28:48;12.50;99.90
6373;DHT22;3219;51.362;7.074;2022-11-15T16:31:15;12.50;99.90
6373;DHT22;3219;51.362;7.074;2022-11-15T16:33:44;12.50;99.90
6373;DHT22;3219;51.362;7.074;2022-11-15T16:36:19;12.60;99.90
6373;DHT22;3219;51.362;7.074;2022-11-15T16:38:47;12.50;99.90
6373;DHT22;3219;51.362;7.074;2022-11-15T16:41:14;12.50;99.90
6373;DHT22;3219;51.362;7.074;2022-11-15T16:43:44;12.50;99.90
6373;DHT22;3219;51.362;7.074;2022-11-15T16:46:16;12.50;99.90
6373;DHT22;3219;51.362;7.074;2022-11-15T16:48:43;12.50;99.90
6373;DHT22;3219;51.362;7.074;2022-11-15T16:51:10;12.50;99.90
6373;DHT22;3219;51.362;7.074;2022-11-15T16:53:37;12.60;99.90
6373;DHT22;3219;51.362;7.074;2022-11-15T16:56:08;12.50;99.90
6373;DHT22;3219;51.362;7.074;2022-11-15T16:58:38;12.50;99.90
6373;DHT22;3219;51.362;7.074;2022-11-15T17:01:05;12.60;99.90
6373;DHT22;3219;51.362;7.074;2022-11-15T17:03:34;12.60;99.90
6373;DHT22;3219;51.362;7.074;2022-11-15T17:06:01;12.60;99.90
6373;DHT22;3219;51.362;7.074;2022-11-15T17:08:28;12.60;99.90
6373;DHT22;3219;51.362;7.074;2022-11-15T17:10:54;12.50;99.90
6373;DHT22;3219;51.362;7.074;2022-11-15T17:13:21;12.50;99.90
6373;DHT22;3219;51.362;7.074;2022-11-15T17:15:48;12.60;99.90
6373;DHT22;3219;51.362;7.074;2022-11-15T17:18:14;12.50;99.90